sensor_id;sensor_type;location;lat;lon;timestamp;P1;durP1;ratioP1;P2;durP2;ratioP2
32228;SDS011;18717;48.034;11.186;2022-07-15T00:00:14;14.05;;;13.00;;
32228;SDS011;18717;48.034;11.186;2022-07-15T00:02:42;14.10;;;13.32;;
32228;SDS011;18717;48.034;11.186;2022-07-15T00:05:10;14.57;;;13.68;;
32228;SDS011;18717;48.034;11.186;2022-07-15T00:07:37;13.45;;;12.65;;
32228;SDS011;18717;48.034;11.186;2022-07-15T00:10:06;14.30;;;13.25;;
32228;SDS011;18717;48.034;11.186;2022-07-15T00:12:53;14.48;;;13.25;;
32228;SDS011;18717;48.034;11.186;2022-07-15T00:15:23;13.30;;;12.48;;
32228;SDS011;18717;48.034;11.186;2022-07-15T00:17:53;14.73;;;13.77;;
32228;SDS011;18717;48.034;11.186;2022-07-15T00:20:21;14.73;;;13.32;;
32228;SDS011;18717;48.034;11.186;2022-07-15T00:22:50;13.60;;;12.75;;
32228;SDS011;18717;48.034;11.186;2022-07-15T00:25:17;13.10;;;12.40;;
32228;SDS011;18717;48.034;11.186;2022-07-15T00:27:54;14.40;;;13.20;;
32228;SDS011;18717;48.034;11.186;2022-07-15T00:30:23;14.45;;;13.57;;
32228;SDS011;18717;48.034;11.186;2022-07-15T00:32:51;13.93;;;13.02;;
32228;SDS011;18717;48.034;11.186;2022-07-15T00:35:19;14.57;;;13.68;;
32228;SDS011;18717;48.034;11.186;2022-07-15T00:37:46;14.02;;;12.85;;
32228;SDS011;18717;48.034;11.186;2022-07-15T00:40:14;15.82;;;13.77;;
32228;SDS011;18717;48.034;11.186;2022-07-15T00:42:43;14.55;;;13.43;;
32228;SDS011;18717;48.034;11.186;2022-07-15T00:45:15;15.40;;;14.07;;
32228;SDS011;18717;48.034;11.186;2022-07-15T00:47:45;14.85;;;13.52;;
32228;SDS011;18717;48.034;11.186;2022-07-15T00:50:13;14.65;;;13.68;;
32228;SDS011;18717;48.034;11.186;2022-07-15T00:52:43;15.43;;;13.95;;
32228;SDS011;18717;48.034;11.186;2022-07-15T00:55:13;13.70;;;12.88;;
32228;SDS011;18717;48.034;11.186;2022-07-15T00:57:42;13.95;;;12.98;;
32228;SDS011;18717;48.034;11.186;2022-07-15T01:00:12;14.40;;;13.32;;
32228;SDS011;18717;48.034;11.186;2022-07-15T01:02:42;13.77;;;12.77;;
32228;SDS011;18717;48.034;11.186;2022-07-15T01:05:17;13.52;;;12.68;;
32228;SDS011;18717;48.034;11.186;2022-07-15T01:07:46;15.25;;;14.35;;
32228;SDS011;18717;48.034;11.186;2022-07-15T01:10:16;15.10;;;14.00;;
32228;SDS011;18717;48.034;11.186;2022-07-15T01:12:44;14.10;;;13.10;;
32228;SDS011;18717;48.034;11.186;2022-07-15T01:15:13;16.02;;;14.63;;
32228;SDS011;18717;48.034;11.186;2022-07-15T01:17:44;16.20;;;14.68;;
32228;SDS011;18717;48.034;11.186;2022-07-15T01:20:13;15.88;;;14.48;;
32228;SDS011;18717;48.034;11.186;2022-07-15T01:22:42;14.38;;;13.32;;
32228;SDS011;18717;48.034;11.186;2022-07-15T01:25:10;15.60;;;14.27;;
32228;SDS011;18717;48.034;11.186;2022-07-15T01:27:38;15.55;;;14.07;;
32228;SDS011;18717;48.034;11.186;2022-07-15T01:30:08;14.80;;;13.70;;
32228;SDS011;18717;48.034;11.186;2022-07-15T01:32:36;15.95;;;14.30;;
32228;SDS011;18717;48.034;11.186;2022-07-15T01:35:04;15.85;;;14.63;;
32228;SDS011;18717;48.034;11.186;2022-07-15T01:37:32;15.20;;;13.75;;
32228;SDS011;18717;48.034;11.186;2022-07-15T01:40:01;15.07;;;13.95;;
32228;SDS011;18717;48.034;11.186;2022-07-15T01:42:29;14.55;;;13.55;;
32228;SDS011;18717;48.034;11.186;2022-07-15T01:44:57;15.43;;;14.30;;
32228;SDS011;18717;48.034;11.186;2022-07-15T01:47:25;15.18;;;14.27;;
32228;SDS011;18717;48.034;11.186;2022-07-15T01:49:52;14.75;;;13.75;;
32228;SDS011;18717;48.034;11.186;2022-07-15T01:52:20;15.18;;;13.68;;
32228;SDS011;18717;48.034;11.186;2022-07-15T01:54:48;16.30;;;14.93;;
32228;SDS011;18717;48.034;11.186;2022-07-15T01:57:17;15.88;;;14.68;;
32228;SDS011;18717;48.034;11.186;2022-07-15T01:59:45;15.90;;;14.77;;
32228;SDS011;18717;48.034;11.186;2022-07-15T02:02:12;15.57;;;14.30;;
32228;SDS011;18717;48.034;11.186;2022-07-15T02:04:40;14.35;;;13.35;;
32228;SDS011;18717;48.034;11.186;2022-07-15T02:07:08;15.32;;;14.18;;
32228;SDS011;18717;48.034;11.186;2022-07-15T02:09:36;15.60;;;14.27;;
32228;SDS011;18717;48.034;11.186;2022-07-15T02:12:03;15.20;;;14.15;;
32228;SDS011;18717;48.034;11.186;2022-07-15T02:14:33;15.50;;;14.38;;
32228;SDS011;18717;48.034;11.186;2022-07-15T02:17:02;16.77;;;15.15;;
32228;SDS011;18717;48.034;11.186;2022-07-15T02:19:29;15.63;;;14.50;;
32228;SDS011;18717;48.034;11.186;2022-07-15T02:21:57;15.90;;;14.65;;
32228;SDS011;18717;48.034;11.186;2022-07-15T02:24:25;15.93;;;14.63;;
32228;SDS011;18717;48.034;11.186;2022-07-15T02:26:52;16.20;;;14.73;;
32228;SDS011;18717;48.034;11.186;2022-07-15T02:29:20;16.40;;;14.63;;
32228;SDS011;18717;48.034;11.186;2022-07-15T02:31:49;16.60;;;15.02;;
32228;SDS011;18717;48.034;11.186;2022-07-15T02:34:17;16.30;;;14.63;;
32228;SDS011;18717;48.034;11.186;2022-07-15T02:36:45;15.82;;;14.63;;
32228;SDS011;18717;48.034;11.186;2022-07-15T02:39:12;16.60;;;15.05;;
32228;SDS011;18717;48.034;11.186;2022-07-15T02:41:40;15.50;;;14.40;;
32228;SDS011;18717;48.034;11.186;2022-07-15T02:44:08;15.13;;;13.88;;
32228;SDS011;18717;48.034;11.186;2022-07-15T02:46:35;15.88;;;14.60;;
32228;SDS011;18717;48.034;11.186;2022-07-15T02:52:37;16.77;;;15.17;;
32228;SDS011;18717;48.034;11.186;2022-07-15T02:55:05;15.73;;;14.30;;
32228;SDS011;18717;48.034;11.186;2022-07-15T02:57:33;15.75;;;14.38;;
32228;SDS011;18717;48.034;11.186;2022-07-15T03:00:01;14.73;;;13.73;;
32228;SDS011;18717;48.034;11.186;2022-07-15T03:02:30;15.55;;;14.25;;
32228;SDS011;18717;48.034;11.186;2022-07-15T03:04:58;16.40;;;14.68;;
32228;SDS011;18717;48.034;11.186;2022-07-15T03:07:26;17.90;;;14.38;;
32228;SDS011;18717;48.034;11.186;2022-07-15T03:09:56;15.38;;;13.95;;
32228;SDS011;18717;48.034;11.186;2022-07-15T03:12:24;15.45;;;14.05;;
32228;SDS011;18717;48.034;11.186;2022-07-15T03:14:51;16.65;;;15.18;;
32228;SDS011;18717;48.034;11.186;2022-07-15T03:17:19;14.95;;;13.95;;
32228;SDS011;18717;48.034;11.186;2022-07-15T03:19:47;15.95;;;14.65;;
32228;SDS011;18717;48.034;11.186;2022-07-15T03:22:14;16.60;;;15.18;;
32228;SDS011;18717;48.034;11.186;2022-07-15T03:24:42;16.10;;;14.70;;
32228;SDS011;18717;48.034;11.186;2022-07-15T03:27:11;15.40;;;14.07;;
32228;SDS011;18717;48.034;11.186;2022-07-15T03:29:39;16.17;;;15.02;;
32228;SDS011;18717;48.034;11.186;2022-07-15T03:32:06;14.95;;;13.80;;
32228;SDS011;18717;48.034;11.186;2022-07-15T03:34:34;16.17;;;14.57;;
32228;SDS011;18717;48.034;11.186;2022-07-15T03:37:02;36.60;;;15.15;;
32228;SDS011;18717;48.034;11.186;2022-07-15T03:39:29;15.52;;;14.10;;
32228;SDS011;18717;48.034;11.186;2022-07-15T03:41:57;14.80;;;13.32;;
32228;SDS011;18717;48.034;11.186;2022-07-15T03:44:26;15.07;;;13.80;;
32228;SDS011;18717;48.034;11.186;2022-07-15T03:46:54;14.68;;;13.68;;
32228;SDS011;18717;48.034;11.186;2022-07-15T03:49:21;15.15;;;13.80;;
32228;SDS011;18717;48.034;11.186;2022-07-15T03:51:49;14.45;;;13.10;;
32228;SDS011;18717;48.034;11.186;2022-07-15T03:54:17;14.88;;;13.55;;
32228;SDS011;18717;48.034;11.186;2022-07-15T03:56:45;14.20;;;13.27;;
32228;SDS011;18717;48.034;11.186;2022-07-15T03:59:14;14.52;;;13.15;;
32228;SDS011;18717;48.034;11.186;2022-07-15T04:01:43;13.85;;;12.85;;
32228;SDS011;18717;48.034;11.186;2022-07-15T04:04:11;13.93;;;12.63;;
32228;SDS011;18717;48.034;11.186;2022-07-15T04:06:38;13.93;;;12.82;;
32228;SDS011;18717;48.034;11.186;2022-07-15T04:09:06;13.48;;;12.38;;
32228;SDS011;18717;48.034;11.186;2022-07-15T04:11:36;15.18;;;13.73;;
32228;SDS011;18717;48.034;11.186;2022-07-15T04:14:09;13.07;;;11.82;;
32228;SDS011;18717;48.034;11.186;2022-07-15T04:16:37;13.52;;;12.52;;
32228;SDS011;18717;48.034;11.186;2022-07-15T04:19:06;15.95;;;12.35;;
32228;SDS011;18717;48.034;11.186;2022-07-15T04:21:34;13.88;;;12.68;;
32228;SDS011;18717;48.034;11.186;2022-07-15T04:24:02;13.45;;;12.65;;
32228;SDS011;18717;48.034;11.186;2022-07-15T04:26:30;12.93;;;12.13;;
32228;SDS011;18717;48.034;11.186;2022-07-15T04:28:58;14.23;;;12.80;;
32228;SDS011;18717;48.034;11.186;2022-07-15T04:31:25;14.02;;;12.60;;
32228;SDS011;18717;48.034;11.186;2022-07-15T04:33:53;13.00;;;11.75;;
32228;SDS011;18717;48.034;11.186;2022-07-15T04:36:22;13.13;;;11.90;;
32228;SDS011;18717;48.034;11.186;2022-07-15T04:38:50;13.25;;;12.18;;
32228;SDS011;18717;48.034;11.186;2022-07-15T04:41:17;13.57;;;12.32;;
32228;SDS011;18717;48.034;11.186;2022-07-15T04:43:45;13.88;;;12.88;;
32228;SDS011;18717;48.034;11.186;2022-07-15T04:46:13;15.07;;;12.70;;
32228;SDS011;18717;48.034;11.186;2022-07-15T04:48:41;13.98;;;12.70;;
32228;SDS011;18717;48.034;11.186;2022-07-15T04:51:27;13.15;;;12.20;;
32228;SDS011;18717;48.034;11.186;2022-07-15T04:53:55;14.57;;;13.38;;
32228;SDS011;18717;48.034;11.186;2022-07-15T04:56:23;12.77;;;11.75;;
32228;SDS011;18717;48.034;11.186;2022-07-15T04:58:50;13.75;;;12.50;;
32228;SDS011;18717;48.034;11.186;2022-07-15T05:01:18;13.32;;;12.20;;
32228;SDS011;18717;48.034;11.186;2022-07-15T05:03:53;12.73;;;11.73;;
32228;SDS011;18717;48.034;11.186;2022-07-15T05:06:21;13.40;;;12.38;;
32228;SDS011;18717;48.034;11.186;2022-07-15T05:08:50;13.15;;;12.13;;
32228;SDS011;18717;48.034;11.186;2022-07-15T05:11:17;12.57;;;11.55;;
32228;SDS011;18717;48.034;11.186;2022-07-15T05:13:45;12.85;;;11.85;;
32228;SDS011;18717;48.034;11.186;2022-07-15T05:16:12;13.25;;;12.25;;
32228;SDS011;18717;48.034;11.186;2022-07-15T05:18:40;12.82;;;11.57;;
32228;SDS011;18717;48.034;11.186;2022-07-15T05:21:08;12.70;;;11.52;;
32228;SDS011;18717;48.034;11.186;2022-07-15T05:23:36;12.25;;;11.50;;
32228;SDS011;18717;48.034;11.186;2022-07-15T05:26:05;12.65;;;11.52;;
32228;SDS011;18717;48.034;11.186;2022-07-15T05:28:33;14.60;;;13.35;;
32228;SDS011;18717;48.034;11.186;2022-07-15T05:31:01;19.58;;;12.07;;
32228;SDS011;18717;48.034;11.186;2022-07-15T05:33:29;14.02;;;11.80;;
32228;SDS011;18717;48.034;11.186;2022-07-15T05:35:56;12.48;;;11.55;;
32228;SDS011;18717;48.034;11.186;2022-07-15T05:38:25;12.73;;;11.82;;
32228;SDS011;18717;48.034;11.186;2022-07-15T05:40:52;12.60;;;11.70;;
32228;SDS011;18717;48.034;11.186;2022-07-15T05:43:22;15.25;;;12.07;;
32228;SDS011;18717;48.034;11.186;2022-07-15T05:45:50;13.90;;;12.77;;
32228;SDS011;18717;48.034;11.186;2022-07-15T05:48:17;12.85;;;11.70;;
32228;SDS011;18717;48.034;11.186;2022-07-15T05:50:45;13.65;;;12.10;;
32228;SDS011;18717;48.034;11.186;2022-07-15T05:53:13;13.45;;;12.45;;
32228;SDS011;18717;48.034;11.186;2022-07-15T05:55:40;15.73;;;12.50;;
32228;SDS011;18717;48.034;11.186;2022-07-15T05:58:08;12.90;;;11.68;;
32228;SDS011;18717;48.034;11.186;2022-07-15T06:00:37;12.52;;;11.63;;
32228;SDS011;18717;48.034;11.186;2022-07-15T06:03:06;14.40;;;12.75;;
32228;SDS011;18717;48.034;11.186;2022-07-15T06:05:39;13.35;;;12.32;;
32228;SDS011;18717;48.034;11.186;2022-07-15T06:08:08;12.48;;;11.45;;
32228;SDS011;18717;48.034;11.186;2022-07-15T06:10:37;14.23;;;11.95;;
32228;SDS011;18717;48.034;11.186;2022-07-15T06:13:04;14.30;;;13.13;;
32228;SDS011;18717;48.034;11.186;2022-07-15T06:15:32;15.75;;;11.65;;
32228;SDS011;18717;48.034;11.186;2022-07-15T06:18:01;13.00;;;11.85;;
32228;SDS011;18717;48.034;11.186;2022-07-15T06:20:29;13.52;;;12.35;;
32228;SDS011;18717;48.034;11.186;2022-07-15T06:22:57;14.98;;;12.95;;
32228;SDS011;18717;48.034;11.186;2022-07-15T06:25:25;12.85;;;11.73;;
32228;SDS011;18717;48.034;11.186;2022-07-15T06:27:52;14.77;;;12.10;;
32228;SDS011;18717;48.034;11.186;2022-07-15T06:30:20;13.10;;;11.95;;
32228;SDS011;18717;48.034;11.186;2022-07-15T06:32:48;13.50;;;12.60;;
32228;SDS011;18717;48.034;11.186;2022-07-15T06:35:17;12.77;;;11.60;;
32228;SDS011;18717;48.034;11.186;2022-07-15T06:37:44;14.00;;;12.90;;
32228;SDS011;18717;48.034;11.186;2022-07-15T06:40:12;13.40;;;12.18;;
32228;SDS011;18717;48.034;11.186;2022-07-15T06:42:40;13.27;;;11.98;;
32228;SDS011;18717;48.034;11.186;2022-07-15T06:45:08;13.35;;;12.35;;
32228;SDS011;18717;48.034;11.186;2022-07-15T06:47:39;13.50;;;12.43;;
32228;SDS011;18717;48.034;11.186;2022-07-15T06:50:07;13.85;;;12.43;;
32228;SDS011;18717;48.034;11.186;2022-07-15T06:52:37;13.25;;;12.20;;
32228;SDS011;18717;48.034;11.186;2022-07-15T06:55:05;14.05;;;12.85;;
32228;SDS011;18717;48.034;11.186;2022-07-15T06:57:33;14.27;;;12.98;;
32228;SDS011;18717;48.034;11.186;2022-07-15T07:00:01;13.95;;;12.43;;
32228;SDS011;18717;48.034;11.186;2022-07-15T07:02:30;14.23;;;12.98;;
32228;SDS011;18717;48.034;11.186;2022-07-15T07:04:59;13.43;;;12.32;;
32228;SDS011;18717;48.034;11.186;2022-07-15T07:07:26;13.30;;;12.02;;
32228;SDS011;18717;48.034;11.186;2022-07-15T07:09:56;14.15;;;13.05;;
32228;SDS011;18717;48.034;11.186;2022-07-15T07:12:24;13.82;;;12.52;;
32228;SDS011;18717;48.034;11.186;2022-07-15T07:14:51;14.13;;;12.68;;
32228;SDS011;18717;48.034;11.186;2022-07-15T07:17:19;13.93;;;12.50;;
32228;SDS011;18717;48.034;11.186;2022-07-15T07:19:47;14.35;;;13.25;;
32228;SDS011;18717;48.034;11.186;2022-07-15T07:22:15;16.52;;;14.77;;
32228;SDS011;18717;48.034;11.186;2022-07-15T07:24:43;14.10;;;12.80;;
32228;SDS011;18717;48.034;11.186;2022-07-15T07:27:12;14.20;;;12.95;;
32228;SDS011;18717;48.034;11.186;2022-07-15T07:29:40;14.13;;;13.05;;
32228;SDS011;18717;48.034;11.186;2022-07-15T07:32:08;13.85;;;12.77;;
32228;SDS011;18717;48.034;11.186;2022-07-15T07:34:35;14.05;;;13.05;;
32228;SDS011;18717;48.034;11.186;2022-07-15T07:37:03;13.60;;;12.35;;
32228;SDS011;18717;48.034;11.186;2022-07-15T07:39:31;14.77;;;13.55;;
32228;SDS011;18717;48.034;11.186;2022-07-15T07:41:59;14.25;;;12.93;;
32228;SDS011;18717;48.034;11.186;2022-07-15T07:44:28;14.77;;;13.77;;
32228;SDS011;18717;48.034;11.186;2022-07-15T07:46:55;14.40;;;13.40;;
32228;SDS011;18717;48.034;11.186;2022-07-15T07:49:23;14.77;;;13.52;;
32228;SDS011;18717;48.034;11.186;2022-07-15T07:52:01;16.73;;;13.77;;
32228;SDS011;18717;48.034;11.186;2022-07-15T07:54:29;14.88;;;13.70;;
32228;SDS011;18717;48.034;11.186;2022-07-15T07:56:57;15.13;;;13.80;;
32228;SDS011;18717;48.034;11.186;2022-07-15T07:59:24;15.23;;;13.55;;
32228;SDS011;18717;48.034;11.186;2022-07-15T08:01:53;14.23;;;13.15;;
32228;SDS011;18717;48.034;11.186;2022-07-15T08:04:21;14.65;;;13.25;;
32228;SDS011;18717;48.034;11.186;2022-07-15T08:06:49;14.10;;;12.93;;
32228;SDS011;18717;48.034;11.186;2022-07-15T08:09:18;15.63;;;14.10;;
32228;SDS011;18717;48.034;11.186;2022-07-15T08:11:46;14.18;;;13.00;;
32228;SDS011;18717;48.034;11.186;2022-07-15T08:14:14;19.10;;;13.77;;
32228;SDS011;18717;48.034;11.186;2022-07-15T08:16:44;14.70;;;13.30;;
32228;SDS011;18717;48.034;11.186;2022-07-15T08:19:14;15.38;;;14.18;;
32228;SDS011;18717;48.034;11.186;2022-07-15T08:21:43;14.68;;;13.68;;
32228;SDS011;18717;48.034;11.186;2022-07-15T08:24:11;15.68;;;14.07;;
32228;SDS011;18717;48.034;11.186;2022-07-15T08:26:39;16.38;;;14.98;;
32228;SDS011;18717;48.034;11.186;2022-07-15T08:29:07;16.33;;;13.50;;
32228;SDS011;18717;48.034;11.186;2022-07-15T08:31:35;14.65;;;13.45;;
32228;SDS011;18717;48.034;11.186;2022-07-15T08:34:03;17.40;;;14.25;;
32228;SDS011;18717;48.034;11.186;2022-07-15T08:36:33;14.88;;;13.63;;
32228;SDS011;18717;48.034;11.186;2022-07-15T08:39:01;15.63;;;14.63;;
32228;SDS011;18717;48.034;11.186;2022-07-15T08:41:29;15.73;;;14.15;;
32228;SDS011;18717;48.034;11.186;2022-07-15T08:43:56;16.05;;;14.77;;
32228;SDS011;18717;48.034;11.186;2022-07-15T08:46:24;15.48;;;14.55;;
32228;SDS011;18717;48.034;11.186;2022-07-15T08:48:53;15.55;;;14.35;;
32228;SDS011;18717;48.034;11.186;2022-07-15T08:51:25;15.43;;;13.70;;
32228;SDS011;18717;48.034;11.186;2022-07-15T08:53:55;14.68;;;13.68;;
32228;SDS011;18717;48.034;11.186;2022-07-15T08:56:23;15.35;;;14.15;;
32228;SDS011;18717;48.034;11.186;2022-07-15T08:58:50;15.38;;;14.45;;
32228;SDS011;18717;48.034;11.186;2022-07-15T09:01:25;16.00;;;14.70;;
32228;SDS011;18717;48.034;11.186;2022-07-15T09:03:53;15.90;;;14.60;;
32228;SDS011;18717;48.034;11.186;2022-07-15T09:06:30;15.88;;;14.63;;
32228;SDS011;18717;48.034;11.186;2022-07-15T09:09:04;16.73;;;15.13;;
32228;SDS011;18717;48.034;11.186;2022-07-15T09:11:53;14.35;;;13.25;;
32228;SDS011;18717;48.034;11.186;2022-07-15T09:14:37;16.70;;;13.70;;
32228;SDS011;18717;48.034;11.186;2022-07-15T09:17:21;15.65;;;14.52;;
32228;SDS011;18717;48.034;11.186;2022-07-15T09:19:57;14.75;;;13.45;;
32228;SDS011;18717;48.034;11.186;2022-07-15T09:22:31;16.58;;;15.00;;
32228;SDS011;18717;48.034;11.186;2022-07-15T09:25:02;15.63;;;14.48;;
32228;SDS011;18717;48.034;11.186;2022-07-15T09:27:33;15.80;;;14.68;;
32228;SDS011;18717;48.034;11.186;2022-07-15T09:30:15;15.45;;;14.25;;
32228;SDS011;18717;48.034;11.186;2022-07-15T09:33:02;15.60;;;14.13;;
32228;SDS011;18717;48.034;11.186;2022-07-15T09:35:49;16.30;;;14.85;;
32228;SDS011;18717;48.034;11.186;2022-07-15T09:38:30;15.57;;;14.35;;
32228;SDS011;18717;48.034;11.186;2022-07-15T09:41:00;16.73;;;15.48;;
32228;SDS011;18717;48.034;11.186;2022-07-15T09:43:28;16.05;;;14.70;;
32228;SDS011;18717;48.034;11.186;2022-07-15T09:45:57;14.75;;;13.65;;
32228;SDS011;18717;48.034;11.186;2022-07-15T09:48:26;15.40;;;14.35;;
32228;SDS011;18717;48.034;11.186;2022-07-15T09:50:58;15.43;;;14.35;;
32228;SDS011;18717;48.034;11.186;2022-07-15T09:55:54;15.65;;;14.30;;
32228;SDS011;18717;48.034;11.186;2022-07-15T09:58:24;15.73;;;14.60;;
32228;SDS011;18717;48.034;11.186;2022-07-15T10:00:52;16.20;;;14.82;;
32228;SDS011;18717;48.034;11.186;2022-07-15T10:03:20;14.77;;;13.68;;
32228;SDS011;18717;48.034;11.186;2022-07-15T10:05:51;15.05;;;13.85;;
32228;SDS011;18717;48.034;11.186;2022-07-15T10:08:20;15.30;;;14.30;;
32228;SDS011;18717;48.034;11.186;2022-07-15T10:10:48;15.48;;;14.27;;
32228;SDS011;18717;48.034;11.186;2022-07-15T10:13:29;15.45;;;14.07;;
32228;SDS011;18717;48.034;11.186;2022-07-15T10:16:10;16.33;;;15.00;;
32228;SDS011;18717;48.034;11.186;2022-07-15T10:18:52;14.80;;;13.88;;
32228;SDS011;18717;48.034;11.186;2022-07-15T10:21:27;15.15;;;14.18;;
32228;SDS011;18717;48.034;11.186;2022-07-15T10:27:00;16.42;;;14.90;;
32228;SDS011;18717;48.034;11.186;2022-07-15T10:29:36;16.02;;;14.48;;
32228;SDS011;18717;48.034;11.186;2022-07-15T10:32:04;15.70;;;14.25;;
32228;SDS011;18717;48.034;11.186;2022-07-15T10:34:32;15.02;;;14.10;;
32228;SDS011;18717;48.034;11.186;2022-07-15T10:37:02;15.30;;;14.07;;
32228;SDS011;18717;48.034;11.186;2022-07-15T10:39:47;15.65;;;14.55;;
32228;SDS011;18717;48.034;11.186;2022-07-15T10:42:24;16.17;;;14.90;;
32228;SDS011;18717;48.034;11.186;2022-07-15T10:45:06;15.10;;;14.07;;
32228;SDS011;18717;48.034;11.186;2022-07-15T10:47:34;15.52;;;14.27;;
32228;SDS011;18717;48.034;11.186;2022-07-15T10:55:46;15.20;;;13.95;;
32228;SDS011;18717;48.034;11.186;2022-07-15T10:58:15;16.08;;;15.07;;
32228;SDS011;18717;48.034;11.186;2022-07-15T11:00:45;15.35;;;14.25;;
32228;SDS011;18717;48.034;11.186;2022-07-15T11:03:14;15.73;;;14.48;;
32228;SDS011;18717;48.034;11.186;2022-07-15T11:06:03;14.43;;;13.30;;
32228;SDS011;18717;48.034;11.186;2022-07-15T11:08:48;15.85;;;14.50;;
32228;SDS011;18717;48.034;11.186;2022-07-15T11:17:23;15.05;;;14.18;;
32228;SDS011;18717;48.034;11.186;2022-07-15T11:19:53;14.35;;;13.35;;
32228;SDS011;18717;48.034;11.186;2022-07-15T11:22:22;15.93;;;14.32;;
32228;SDS011;18717;48.034;11.186;2022-07-15T11:24:51;15.30;;;14.25;;
32228;SDS011;18717;48.034;11.186;2022-07-15T11:27:20;14.85;;;13.68;;
32228;SDS011;18717;48.034;11.186;2022-07-15T11:29:49;15.45;;;14.40;;
32228;SDS011;18717;48.034;11.186;2022-07-15T11:32:18;14.80;;;13.60;;
32228;SDS011;18717;48.034;11.186;2022-07-15T11:34:49;14.38;;;13.43;;
32228;SDS011;18717;48.034;11.186;2022-07-15T11:37:18;15.07;;;13.93;;
32228;SDS011;18717;48.034;11.186;2022-07-15T11:40:04;15.35;;;14.23;;
32228;SDS011;18717;48.034;11.186;2022-07-15T11:42:34;14.80;;;13.45;;
32228;SDS011;18717;48.034;11.186;2022-07-15T11:45:31;14.55;;;13.23;;
32228;SDS011;18717;48.034;11.186;2022-07-15T11:47:59;14.88;;;13.77;;
32228;SDS011;18717;48.034;11.186;2022-07-15T11:50:28;13.82;;;12.98;;
32228;SDS011;18717;48.034;11.186;2022-07-15T11:52:56;14.45;;;13.35;;
32228;SDS011;18717;48.034;11.186;2022-07-15T11:55:25;14.02;;;13.13;;
32228;SDS011;18717;48.034;11.186;2022-07-15T11:57:53;14.10;;;13.15;;
32228;SDS011;18717;48.034;11.186;2022-07-15T12:00:27;14.27;;;13.30;;
32228;SDS011;18717;48.034;11.186;2022-07-15T12:03:06;14.93;;;13.77;;
32228;SDS011;18717;48.034;11.186;2022-07-15T12:05:35;14.48;;;13.57;;
32228;SDS011;18717;48.034;11.186;2022-07-15T12:08:03;14.70;;;13.85;;
32228;SDS011;18717;48.034;11.186;2022-07-15T12:10:34;15.32;;;13.95;;
32228;SDS011;18717;48.034;11.186;2022-07-15T12:13:04;15.57;;;14.52;;
32228;SDS011;18717;48.034;11.186;2022-07-15T12:15:32;15.27;;;14.18;;
32228;SDS011;18717;48.034;11.186;2022-07-15T12:18:00;14.82;;;13.90;;
32228;SDS011;18717;48.034;11.186;2022-07-15T12:20:29;15.60;;;14.07;;
32228;SDS011;18717;48.034;11.186;2022-07-15T12:23:02;15.32;;;14.20;;
32228;SDS011;18717;48.034;11.186;2022-07-15T12:25:31;14.45;;;13.43;;
32228;SDS011;18717;48.034;11.186;2022-07-15T12:27:59;15.82;;;14.57;;
32228;SDS011;18717;48.034;11.186;2022-07-15T12:30:31;15.70;;;14.23;;
32228;SDS011;18717;48.034;11.186;2022-07-15T12:33:13;15.35;;;14.38;;
32228;SDS011;18717;48.034;11.186;2022-07-15T12:38:14;14.40;;;13.48;;
32228;SDS011;18717;48.034;11.186;2022-07-15T12:43:19;14.82;;;13.45;;
32228;SDS011;18717;48.034;11.186;2022-07-15T12:45:47;14.95;;;13.88;;
32228;SDS011;18717;48.034;11.186;2022-07-15T12:48:15;15.77;;;14.52;;
32228;SDS011;18717;48.034;11.186;2022-07-15T12:50:56;14.55;;;13.55;;
32228;SDS011;18717;48.034;11.186;2022-07-15T12:53:26;14.57;;;13.48;;
32228;SDS011;18717;48.034;11.186;2022-07-15T12:56:05;14.88;;;13.70;;
32228;SDS011;18717;48.034;11.186;2022-07-15T12:58:33;14.68;;;13.63;;
32228;SDS011;18717;48.034;11.186;2022-07-15T13:01:06;14.32;;;13.30;;
32228;SDS011;18717;48.034;11.186;2022-07-15T13:03:35;15.65;;;14.30;;
32228;SDS011;18717;48.034;11.186;2022-07-15T13:06:03;15.18;;;14.07;;
32228;SDS011;18717;48.034;11.186;2022-07-15T13:08:33;14.30;;;13.15;;
32228;SDS011;18717;48.034;11.186;2022-07-15T13:11:03;17.10;;;15.15;;
32228;SDS011;18717;48.034;11.186;2022-07-15T13:13:32;15.07;;;13.88;;
32228;SDS011;18717;48.034;11.186;2022-07-15T13:16:01;15.68;;;14.50;;
32228;SDS011;18717;48.034;11.186;2022-07-15T13:18:29;13.90;;;12.93;;
32228;SDS011;18717;48.034;11.186;2022-07-15T13:20:58;13.85;;;13.10;;
32228;SDS011;18717;48.034;11.186;2022-07-15T13:23:27;14.52;;;13.52;;
32228;SDS011;18717;48.034;11.186;2022-07-15T13:25:56;14.45;;;13.45;;
32228;SDS011;18717;48.034;11.186;2022-07-15T13:28:24;15.48;;;13.93;;
32228;SDS011;18717;48.034;11.186;2022-07-15T13:30:52;15.40;;;14.15;;
32228;SDS011;18717;48.034;11.186;2022-07-15T13:33:20;15.10;;;13.98;;
32228;SDS011;18717;48.034;11.186;2022-07-15T13:35:48;16.13;;;14.88;;
32228;SDS011;18717;48.034;11.186;2022-07-15T13:38:16;14.15;;;13.25;;
32228;SDS011;18717;48.034;11.186;2022-07-15T13:40:44;15.10;;;14.30;;
32228;SDS011;18717;48.034;11.186;2022-07-15T13:43:13;15.07;;;13.98;;
32228;SDS011;18717;48.034;11.186;2022-07-15T13:45:41;15.23;;;14.00;;
32228;SDS011;18717;48.034;11.186;2022-07-15T13:48:13;14.73;;;13.60;;
32228;SDS011;18717;48.034;11.186;2022-07-15T13:50:41;14.75;;;13.68;;
32228;SDS011;18717;48.034;11.186;2022-07-15T13:53:26;15.10;;;14.05;;
32228;SDS011;18717;48.034;11.186;2022-07-15T13:55:55;15.52;;;14.52;;
32228;SDS011;18717;48.034;11.186;2022-07-15T13:58:24;16.55;;;15.23;;
32228;SDS011;18717;48.034;11.186;2022-07-15T14:00:52;15.20;;;14.20;;
32228;SDS011;18717;48.034;11.186;2022-07-15T14:03:20;14.93;;;13.98;;
32228;SDS011;18717;48.034;11.186;2022-07-15T14:05:48;15.63;;;14.48;;
32228;SDS011;18717;48.034;11.186;2022-07-15T14:08:16;15.48;;;14.15;;
32228;SDS011;18717;48.034;11.186;2022-07-15T14:10:44;14.30;;;13.32;;
32228;SDS011;18717;48.034;11.186;2022-07-15T14:13:11;14.95;;;13.80;;
32228;SDS011;18717;48.034;11.186;2022-07-15T14:15:40;14.90;;;13.68;;
32228;SDS011;18717;48.034;11.186;2022-07-15T14:18:08;15.25;;;14.23;;
32228;SDS011;18717;48.034;11.186;2022-07-15T14:20:36;15.57;;;14.25;;
32228;SDS011;18717;48.034;11.186;2022-07-15T14:23:05;14.55;;;13.65;;
32228;SDS011;18717;48.034;11.186;2022-07-15T14:25:32;15.52;;;14.18;;
32228;SDS011;18717;48.034;11.186;2022-07-15T14:28:00;13.82;;;13.02;;
32228;SDS011;18717;48.034;11.186;2022-07-15T14:30:28;14.40;;;13.40;;
32228;SDS011;18717;48.034;11.186;2022-07-15T14:32:57;15.52;;;13.95;;
32228;SDS011;18717;48.034;11.186;2022-07-15T14:35:25;15.07;;;14.18;;
32228;SDS011;18717;48.034;11.186;2022-07-15T14:37:52;14.82;;;13.82;;
32228;SDS011;18717;48.034;11.186;2022-07-15T14:40:20;15.23;;;14.32;;
32228;SDS011;18717;48.034;11.186;2022-07-15T14:42:48;14.30;;;13.50;;
32228;SDS011;18717;48.034;11.186;2022-07-15T14:45:16;14.15;;;12.80;;
32228;SDS011;18717;48.034;11.186;2022-07-15T14:47:43;16.10;;;14.48;;